Time;durP1;ratioP1;P1;durP2;ratioP2;P2;SDS_P1;SDS_P2;PMS_P1;PMS_P2;Temp;Humidity;BMP_temperature;BMP_pressure;BME280_temperature;BME280_humidity;BME280_pressure;Samples;Min_cycle;Max_cycle;Signal;HPM_P1;HPM_P2
2023/04/12 00:00:38;;;;;;;2.15;1.40;;;19.90;60.20;;;;;;5111299;28;20197;-55
2023/04/12 00:03:10;;;;;;;3.30;1.60;;;19.90;60.20;;;;;;5110883;28;20217;-51
2023/04/12 00:05:45;;;;;;;3.97;1.52;;;19.80;60.20;;;;;;5102436;28;20205;-52
2023/04/12 00:08:16;;;;;;;3.10;1.52;;;19.90;60.20;;;;;;5091593;28;20225;-51
2023/04/12 00:10:47;;;;;;;3.53;1.50;;;19.80;60.20;;;;;;5090008;28;20276;-54
2023/04/12 00:13:19;;;;;;;2.55;1.20;;;19.80;60.30;;;;;;5089979;28;20237;-53
2023/04/12 00:15:50;;;;;;;3.47;1.42;;;19.80;60.40;;;;;;5090357;28;20205;-48
2023/04/12 00:18:23;;;;;;;4.00;1.70;;;19.80;60.40;;;;;;5074518;28;20210;-53
2023/04/12 00:20:54;;;;;;;2.25;1.77;;;19.80;60.50;;;;;;5087228;28;20580;-49
2023/04/12 00:23:25;;;;;;;2.47;1.58;;;19.90;60.50;;;;;;5089923;28;20218;-48
2023/04/12 00:25:55;;;;;;;3.33;1.73;;;19.90;60.70;;;;;;5085106;28;20195;-50
2023/04/12 00:28:28;;;;;;;2.15;1.40;;;19.90;60.80;;;;;;5073200;28;20693;-53
2023/04/12 00:30:58;;;;;;;2.35;1.55;;;19.90;61.10;;;;;;5086592;27;20695;-49
2023/04/12 00:33:29;;;;;;;3.42;1.70;;;19.90;61.20;;;;;;5094172;28;20210;-49
2023/04/12 00:35:59;;;;;;;3.72;1.70;;;20.00;61.10;;;;;;5104641;28;20193;-53
2023/04/12 00:38:30;;;;;;;2.17;1.60;;;20.00;60.80;;;;;;5095735;28;20604;-55
2023/04/12 00:41:01;;;;;;;1.98;1.48;;;20.00;60.60;;;;;;5094424;28;20197;-49
2023/04/12 00:43:34;;;;;;;2.45;1.42;;;20.00;60.40;;;;;;5094199;28;20623;-51
2023/04/12 00:46:04;;;;;;;3.80;1.25;;;20.00;60.00;;;;;;5094438;28;20200;-52
2023/04/12 00:48:35;;;;;;;2.97;1.63;;;20.00;59.90;;;;;;5077134;28;20242;-51
2023/04/12 00:51:07;;;;;;;3.60;1.67;;;20.00;59.90;;;;;;5085048;28;20281;-51
2023/04/12 00:53:39;;;;;;;3.28;1.45;;;20.00;60.10;;;;;;5094313;28;20214;-52
2023/04/12 00:56:11;;;;;;;2.30;1.50;;;20.00;60.00;;;;;;5094070;28;20198;-51
2023/04/12 00:58:43;;;;;;;3.42;1.40;;;20.00;59.90;;;;;;5094323;28;20701;-47
2023/04/12 01:01:18;;;;;;;2.90;1.40;;;20.00;59.70;;;;;;5094514;28;20861;-52
2023/04/12 01:03:49;;;;;;;1.33;1.17;;;20.10;59.70;;;;;;5093342;28;20784;-51
2023/04/12 01:06:28;;;;;;;2.78;1.42;;;20.10;59.70;;;;;;5094043;28;20372;-52
2023/04/12 01:09:07;;;;;;;2.88;1.23;;;20.10;59.70;;;;;;5094238;28;20218;-49
2023/04/12 01:11:43;;;;;;;3.03;1.50;;;20.10;59.70;;;;;;5094133;28;20186;-51
2023/04/12 01:14:23;;;;;;;2.92;1.50;;;20.10;59.60;;;;;;5093793;28;20677;-52
2023/04/12 01:16:59;;;;;;;2.45;1.45;;;20.10;59.70;;;;;;5093466;28;20197;-48
2023/04/12 01:19:52;;;;;;;2.80;1.30;;;20.10;59.60;;;;;;5093764;28;20221;-49
2023/04/12 01:22:45;;;;;;;3.13;1.20;;;20.10;59.40;;;;;;5093848;28;20212;-51
2023/04/12 01:25:38;;;;;;;3.97;1.10;;;20.10;59.20;;;;;;5093151;28;20602;-50
2023/04/12 01:28:13;;;;;;;1.60;1.10;;;20.10;59.00;;;;;;5093940;28;20225;-51
2023/04/12 01:30:44;;;;;;;2.13;1.30;;;20.10;59.00;;;;;;5098622;28;20189;-48
2023/04/12 01:33:15;;;;;;;2.65;1.30;;;20.10;58.90;;;;;;5114535;28;20217;-51
2023/04/12 01:35:47;;;;;;;5.25;1.67;;;20.10;58.90;;;;;;5113561;28;20186;-53
2023/04/12 01:38:18;;;;;;;2.83;1.60;;;20.10;59.00;;;;;;5095958;28;20198;-52
2023/04/12 01:40:51;;;;;;;4.80;1.77;;;20.10;59.00;;;;;;5092535;28;20198;-52
2023/04/12 01:43:23;;;;;;;3.47;2.10;;;20.10;59.00;;;;;;5091624;28;20267;-53
2023/04/12 01:45:54;;;;;;;2.47;1.52;;;20.10;59.20;;;;;;5093530;28;20190;-50
2023/04/12 01:48:25;;;;;;;3.45;1.70;;;20.10;59.20;;;;;;5093462;28;20224;-51
2023/04/12 01:51:06;;;;;;;3.80;1.80;;;20.20;59.20;;;;;;5093914;28;20711;-50
2023/04/12 01:53:50;;;;;;;3.88;1.95;;;20.10;59.20;;;;;;5093192;28;20300;-54
2023/04/12 01:56:23;;;;;;;4.40;1.80;;;20.20;59.10;;;;;;5093131;28;20723;-55
2023/04/12 01:58:58;;;;;;;4.10;1.83;;;20.20;59.10;;;;;;5092728;28;20194;-57
2023/04/12 02:01:29;;;;;;;22.13;7.72;;;20.20;59.20;;;;;;5093009;28;20730;-51
2023/04/12 02:04:01;;;;;;;9.98;3.95;;;20.20;59.60;;;;;;5092465;28;20218;-54
2023/04/12 02:06:33;;;;;;;7.90;2.20;;;20.20;60.30;;;;;;5093335;28;20316;-54
2023/04/12 02:09:05;;;;;;;6.22;2.28;;;20.20;60.40;;;;;;5092889;28;20226;-54
2023/04/12 02:11:36;;;;;;;3.30;1.70;;;20.30;60.40;;;;;;5093869;28;20221;-51
2023/04/12 02:14:09;;;;;;;5.07;2.20;;;20.30;60.40;;;;;;5092763;28;20210;-54
2023/04/12 02:16:41;;;;;;;2.92;1.90;;;20.30;61.90;;;;;;5092649;28;20194;-54
2023/04/12 02:19:11;;;;;;;4.90;1.80;;;20.40;61.30;;;;;;5092888;28;20632;-55
2023/04/12 02:21:46;;;;;;;3.50;1.60;;;20.50;61.00;;;;;;5093117;28;20649;-54
2023/04/12 02:24:16;;;;;;;2.80;1.60;;;20.50;61.20;;;;;;5092968;28;20258;-54
2023/04/12 02:26:48;;;;;;;2.45;1.27;;;20.50;61.20;;;;;;5092268;28;20229;-51
2023/04/12 02:29:21;;;;;;;2.35;1.52;;;20.50;60.80;;;;;;5092401;28;20228;-54
2023/04/12 02:31:51;;;;;;;1.58;1.48;;;20.50;60.70;;;;;;5088467;28;20202;-53
2023/04/12 02:34:22;;;;;;;4.15;1.92;;;20.60;61.10;;;;;;5092197;28;20198;-54
2023/04/12 02:36:53;;;;;;;3.33;1.65;;;20.60;61.10;;;;;;5087022;28;20187;-49
2023/04/12 02:39:24;;;;;;;3.67;1.60;;;20.70;60.80;;;;;;5085124;28;20198;-50
2023/04/12 02:41:55;;;;;;;3.17;1.67;;;20.70;60.60;;;;;;5102043;28;20671;-50
2023/04/12 02:44:30;;;;;;;3.38;1.70;;;20.70;60.80;;;;;;5112793;28;20623;-53
2023/04/12 02:47:00;;;;;;;5.10;1.92;;;20.70;62.60;;;;;;5090138;28;20190;-51
2023/04/12 02:49:31;;;;;;;4.25;2.03;;;20.80;64.60;;;;;;5091682;28;20237;-55
2023/04/12 02:52:02;;;;;;;2.63;1.60;;;20.90;64.70;;;;;;5104423;28;20189;-50
2023/04/12 02:54:32;;;;;;;6.32;2.05;;;20.90;63.80;;;;;;5112331;28;20193;-53
2023/04/12 02:57:03;;;;;;;7.03;2.08;;;21.00;64.20;;;;;;5096855;28;20221;-55
2023/04/12 02:59:36;;;;;;;4.82;2.08;;;21.00;63.20;;;;;;5071477;28;20238;-52
2023/04/12 03:02:06;;;;;;;3.40;1.95;;;21.10;61.80;;;;;;5084115;28;20201;-54
2023/04/12 03:04:38;;;;;;;3.50;2.08;;;21.10;60.70;;;;;;5092014;28;20194;-52
2023/04/12 03:07:09;;;;;;;1.92;1.77;;;21.10;60.30;;;;;;5091765;28;20614;-52
2023/04/12 03:09:41;;;;;;;6.40;2.10;;;21.10;60.10;;;;;;5092084;28;20689;-52
2023/04/12 03:12:12;;;;;;;2.88;2.22;;;21.10;59.90;;;;;;5091442;28;20272;-52
2023/04/12 03:14:44;;;;;;;4.65;2.10;;;21.20;59.70;;;;;;5081397;28;20272;-54
2023/04/12 03:17:15;;;;;;;4.25;1.67;;;21.20;59.40;;;;;;5090326;28;20195;-54
2023/04/12 03:19:45;;;;;;;2.28;1.60;;;21.20;59.10;;;;;;5091610;28;20194;-53
2023/04/12 03:22:16;;;;;;;6.32;2.58;;;21.20;58.90;;;;;;5090927;28;20240;-50
2023/04/12 03:24:47;;;;;;;4.60;1.42;;;21.20;58.80;;;;;;5091084;28;20190;-51
2023/04/12 03:27:17;;;;;;;3.13;1.48;;;21.20;58.60;;;;;;5103924;28;20189;-54
2023/04/12 03:29:51;;;;;;;3.28;1.90;;;21.20;58.50;;;;;;5112287;28;20225;-53
2023/04/12 03:32:21;;;;;;;2.83;1.60;;;21.20;58.60;;;;;;5111737;28;20274;-54
2023/04/12 03:34:52;;;;;;;3.28;2.08;;;21.20;58.50;;;;;;5111757;28;20197;-54
2023/04/12 03:37:23;;;;;;;2.10;1.75;;;21.20;58.50;;;;;;5102211;28;20195;-53
2023/04/12 03:39:53;;;;;;;4.82;1.42;;;21.20;58.40;;;;;;5091109;28;20198;-52
2023/04/12 03:42:24;;;;;;;5.43;1.60;;;21.20;58.40;;;;;;5092005;28;20214;-53
2023/04/12 03:44:56;;;;;;;3.78;1.52;;;21.20;58.30;;;;;;5090726;28;20707;-54
2023/04/12 03:47:27;;;;;;;3.60;1.50;;;21.10;58.20;;;;;;5091531;28;20272;-51
2023/04/12 03:49:58;;;;;;;1.63;1.30;;;21.10;58.10;;;;;;5090894;28;20605;-55
2023/04/12 03:52:29;;;;;;;2.55;1.45;;;21.10;58.60;;;;;;5090851;28;20217;-56
2023/04/12 03:55:00;;;;;;;3.25;1.67;;;21.10;58.00;;;;;;5090550;28;20198;-48
2023/04/12 03:57:30;;;;;;;2.85;1.88;;;21.10;58.10;;;;;;5090336;28;20186;-54
2023/04/12 04:00:03;;;;;;;3.25;1.80;;;21.00;58.00;;;;;;5091050;28;20673;-54
2023/04/12 04:02:34;;;;;;;2.90;2.10;;;21.00;58.00;;;;;;5090413;28;20218;-54
2023/04/12 04:05:06;;;;;;;3.03;1.63;;;21.00;58.00;;;;;;5090700;28;20586;-54
2023/04/12 04:07:38;;;;;;;3.00;1.92;;;21.00;58.00;;;;;;5091447;28;20197;-49
2023/04/12 04:10:09;;;;;;;3.97;1.92;;;21.00;58.10;;;;;;5090833;28;20744;-52
2023/04/12 04:12:40;;;;;;;1.98;1.60;;;21.00;58.10;;;;;;5090752;28;20210;-54
2023/04/12 04:15:13;;;;;;;2.50;1.60;;;21.00;58.10;;;;;;5090410;28;20193;-52
2023/04/12 04:17:46;;;;;;;2.45;1.70;;;20.90;58.10;;;;;;5090364;28;20722;-53
2023/04/12 04:20:16;;;;;;;3.08;1.70;;;20.90;58.20;;;;;;5090939;28;20194;-53
2023/04/12 04:22:48;;;;;;;2.15;1.70;;;20.90;58.10;;;;;;5090528;28;20283;-53
2023/04/12 04:25:19;;;;;;;2.72;1.90;;;20.90;58.20;;;;;;5090619;28;20198;-54
2023/04/12 04:27:49;;;;;;;3.60;1.58;;;20.90;58.20;;;;;;5081646;28;20669;-54
2023/04/12 04:30:22;;;;;;;3.80;2.63;;;20.90;58.30;;;;;;5070241;28;20203;-52
2023/04/12 04:32:53;;;;;;;4.20;3.30;;;20.90;58.30;;;;;;5084201;28;20847;-55
2023/04/12 04:35:23;;;;;;;4.90;4.03;;;20.90;58.40;;;;;;5090596;28;20201;-53
2023/04/12 04:37:54;;;;;;;4.47;2.92;;;20.90;58.40;;;;;;5085825;28;20198;-55
2023/04/12 04:40:25;;;;;;;6.35;3.35;;;20.90;58.40;;;;;;5090133;28;20194;-53
2023/04/12 04:42:56;;;;;;;3.22;2.70;;;20.90;58.40;;;;;;5103507;28;20715;-56
2023/04/12 04:45:29;;;;;;;3.80;2.22;;;20.90;58.50;;;;;;5101873;28;20263;-51
2023/04/12 04:48:00;;;;;;;5.30;2.33;;;20.90;58.60;;;;;;5083571;28;20239;-52
2023/04/12 04:50:30;;;;;;;5.32;2.60;;;20.90;58.60;;;;;;5089940;28;20281;-51
2023/04/12 04:53:01;;;;;;;5.75;3.00;;;20.90;58.70;;;;;;5103276;28;20213;-51
2023/04/12 04:55:32;;;;;;;4.95;2.95;;;20.80;58.70;;;;;;5091836;28;20195;-52
2023/04/12 04:58:02;;;;;;;4.45;2.90;;;20.90;58.80;;;;;;5083789;28;20267;-52
2023/04/12 05:00:37;;;;;;;4.82;3.05;;;20.80;58.80;;;;;;5091064;28;20195;-50
2023/04/12 05:03:08;;;;;;;7.55;4.50;;;20.80;58.80;;;;;;5090017;28;20241;-51
2023/04/12 05:05:39;;;;;;;7.03;4.80;;;20.90;58.90;;;;;;5090754;28;20241;-51
2023/04/12 05:08:09;;;;;;;6.55;4.70;;;20.80;58.80;;;;;;5089842;28;20190;-56
2023/04/12 05:10:41;;;;;;;6.53;3.83;;;20.80;58.80;;;;;;5090034;28;20191;-58
2023/04/12 05:13:11;;;;;;;7.07;3.97;;;20.80;58.80;;;;;;5089937;28;20214;-55
2023/04/12 05:15:45;;;;;;;6.15;3.75;;;20.80;58.80;;;;;;5090191;28;20198;-52
2023/04/12 05:18:16;;;;;;;7.90;4.18;;;20.80;58.80;;;;;;5093486;28;20259;-55
2023/04/12 05:20:47;;;;;;;7.50;4.25;;;20.80;58.80;;;;;;5094180;28;20190;-55
2023/04/12 05:23:18;;;;;;;5.03;3.30;;;20.70;58.70;;;;;;5093897;28;20582;-50
2023/04/12 05:25:49;;;;;;;6.78;3.28;;;20.80;58.80;;;;;;5093319;28;20786;-51
2023/04/12 05:28:20;;;;;;;4.57;2.90;;;20.70;58.80;;;;;;5093263;28;20198;-54
2023/04/12 05:30:52;;;;;;;4.55;2.67;;;20.70;58.80;;;;;;5093086;28;20198;-50
2023/04/12 05:33:23;;;;;;;4.82;3.60;;;20.70;58.90;;;;;;5093313;28;20218;-50
2023/04/12 05:35:53;;;;;;;5.30;3.80;;;20.70;58.90;;;;;;5093392;28;20198;-51
2023/04/12 05:38:24;;;;;;;6.47;3.83;;;20.70;58.90;;;;;;5093805;28;20198;-52
2023/04/12 05:40:55;;;;;;;6.75;3.80;;;20.70;58.90;;;;;;5093886;28;20854;-52
2023/04/12 05:43:25;;;;;;;4.45;3.22;;;20.70;58.90;;;;;;5091899;28;20682;-53
2023/04/12 05:45:58;;;;;;;7.10;3.92;;;20.60;59.00;;;;;;5081519;28;20202;-52
2023/04/12 05:48:28;;;;;;;5.03;3.30;;;20.60;59.00;;;;;;5092710;28;20205;-49
2023/04/12 05:50:59;;;;;;;4.10;2.60;;;20.60;59.10;;;;;;5093764;28;20205;-51
2023/04/12 05:53:31;;;;;;;5.38;2.85;;;20.60;59.20;;;;;;5092532;28;20217;-53
2023/04/12 05:56:02;;;;;;;3.90;2.83;;;20.60;59.30;;;;;;5093275;28;20280;-54
2023/04/12 05:58:32;;;;;;;4.40;3.17;;;20.60;59.40;;;;;;5093230;28;20195;-56
2023/04/12 06:01:06;;;;;;;6.72;4.65;;;20.60;59.50;;;;;;5093220;28;20198;-52
2023/04/12 06:03:40;;;;;;;4.63;4.22;;;20.60;59.60;;;;;;5093254;28;20253;-51
2023/04/12 06:06:11;;;;;;;3.50;3.20;;;20.50;59.70;;;;;;5092149;28;20198;-51
2023/04/12 06:08:41;;;;;;;3.85;3.20;;;20.60;59.80;;;;;;5092585;28;20198;-50
2023/04/12 06:11:13;;;;;;;6.85;4.43;;;20.50;59.80;;;;;;5093417;28;20642;-48
2023/04/12 06:13:44;;;;;;;6.63;4.70;;;20.50;59.90;;;;;;5092164;28;20210;-53
2023/04/12 06:16:16;;;;;;;14.75;10.65;;;20.50;60.00;;;;;;5092654;28;20205;-50
2023/04/12 06:18:47;;;;;;;20.58;13.07;;;20.50;60.00;;;;;;5092787;28;20186;-52
2023/04/12 06:21:17;;;;;;;27.95;18.02;;;20.50;60.10;;;;;;5092366;28;20194;-50
2023/04/12 06:23:48;;;;;;;30.83;19.65;;;20.50;60.10;;;;;;5092839;28;20214;-51
2023/04/12 06:26:19;;;;;;;12.70;10.05;;;20.50;60.20;;;;;;5092889;28;20779;-54
2023/04/12 06:28:49;;;;;;;17.98;11.02;;;20.50;60.60;;;;;;5091871;28;20202;-53
2023/04/12 06:31:22;;;;;;;15.88;11.50;;;20.50;60.70;;;;;;5093024;28;20658;-55
2023/04/12 06:33:53;;;;;;;17.98;11.48;;;20.50;60.60;;;;;;5077148;28;20211;-53
2023/04/12 06:36:23;;;;;;;16.35;11.27;;;20.50;60.50;;;;;;5076932;28;20228;-55
2023/04/12 06:38:54;;;;;;;15.57;11.35;;;20.50;60.40;;;;;;5087074;28;20186;-53
2023/04/12 06:41:24;;;;;;;17.90;10.73;;;20.60;60.30;;;;;;5092003;28;20194;-54
2023/04/12 06:43:55;;;;;;;15.25;11.50;;;20.60;60.20;;;;;;5091868;28;20224;-57
2023/04/12 06:46:31;;;;;;;13.90;10.13;;;20.60;60.20;;;;;;5092674;28;20593;-54
2023/04/12 06:49:02;;;;;;;16.88;10.90;;;20.70;60.50;;;;;;5091577;28;20577;-58
2023/04/12 06:51:33;;;;;;;18.20;10.85;;;20.60;60.60;;;;;;5092471;28;20201;-58
2023/04/12 06:54:04;;;;;;;16.55;9.70;;;20.70;60.80;;;;;;5106747;28;20304;-56
2023/04/12 06:56:34;;;;;;;12.18;8.90;;;20.70;61.00;;;;;;5096331;28;20194;-57
2023/04/12 06:59:05;;;;;;;13.57;9.07;;;20.80;61.10;;;;;;5087378;28;20190;-58
2023/04/12 07:01:37;;;;;;;10.90;9.38;;;20.80;61.00;;;;;;5092150;28;20198;-57
2023/04/12 07:04:08;;;;;;;12.32;8.90;;;20.80;61.50;;;;;;5091804;28;20210;-58
2023/04/12 07:06:39;;;;;;;12.60;8.70;;;20.90;60.70;;;;;;5091380;28;20654;-58
2023/04/12 07:09:09;;;;;;;11.00;8.27;;;20.90;60.50;;;;;;5091965;28;20214;-57
2023/04/12 07:11:40;;;;;;;13.57;8.70;;;20.90;60.40;;;;;;5091602;28;20190;-57
2023/04/12 07:14:10;;;;;;;10.77;8.43;;;20.90;60.20;;;;;;5092243;28;20218;-58
2023/04/12 07:16:43;;;;;;;12.07;8.48;;;21.00;60.20;;;;;;5091256;28;20205;-57
2023/04/12 07:19:15;;;;;;;13.13;8.63;;;21.00;60.20;;;;;;5091052;28;20194;-56
2023/04/12 07:21:45;;;;;;;12.48;7.97;;;21.00;60.00;;;;;;5091091;28;20541;-57
2023/04/12 07:24:16;;;;;;;11.10;8.55;;;21.00;60.00;;;;;;5092031;28;20225;-57
2023/04/12 07:26:47;;;;;;;12.38;8.07;;;21.00;59.90;;;;;;5091306;28;20914;-58
2023/04/12 07:29:17;;;;;;;11.95;7.80;;;21.00;59.90;;;;;;5091753;28;20217;-58
2023/04/12 07:31:50;;;;;;;10.75;7.95;;;21.00;59.80;;;;;;5091861;28;20738;-57
2023/04/12 07:34:21;;;;;;;11.82;7.85;;;21.00;59.70;;;;;;5090424;28;20201;-57
2023/04/12 07:36:51;;;;;;;9.75;7.82;;;21.00;59.70;;;;;;5096631;28;20737;-58
2023/04/12 07:39:22;;;;;;;9.32;7.75;;;21.00;59.70;;;;;;5091177;28;20654;-57
2023/04/12 07:41:53;;;;;;;9.30;7.70;;;21.00;59.60;;;;;;5091035;28;20193;-57
2023/04/12 07:44:23;;;;;;;8.98;7.55;;;21.00;59.60;;;;;;5091327;28;20239;-57
2023/04/12 07:46:56;;;;;;;10.75;7.53;;;21.00;59.60;;;;;;5091987;28;20549;-56
2023/04/12 07:49:26;;;;;;;8.55;6.93;;;21.00;59.50;;;;;;5091857;28;20214;-58
2023/04/12 07:51:57;;;;;;;8.48;6.60;;;21.00;59.50;;;;;;5091436;28;20197;-58
2023/04/12 07:54:29;;;;;;;9.45;6.88;;;21.00;59.50;;;;;;5091112;28;20205;-57
2023/04/12 07:57:04;;;;;;;8.38;7.05;;;21.00;59.40;;;;;;5091135;28;20297;-58
2023/04/12 07:59:35;;;;;;;9.32;7.35;;;21.00;59.40;;;;;;5091425;28;20228;-58
2023/04/12 08:02:08;;;;;;;9.88;7.18;;;21.00;59.30;;;;;;5091724;28;20285;-58
2023/04/12 08:04:42;;;;;;;10.52;7.50;;;21.00;59.30;;;;;;5091895;28;20597;-58
2023/04/12 08:07:13;;;;;;;8.05;6.55;;;21.00;59.30;;;;;;5091713;28;20282;-57
2023/04/12 08:09:44;;;;;;;8.65;6.47;;;21.00;59.20;;;;;;5091429;28;20233;-57
2023/04/12 08:12:14;;;;;;;8.57;6.72;;;21.00;59.20;;;;;;5091501;28;20218;-57
2023/04/12 08:14:45;;;;;;;7.72;6.40;;;21.00;59.20;;;;;;5091400;28;20197;-57
2023/04/12 08:17:18;;;;;;;8.15;6.68;;;20.90;59.10;;;;;;5091647;28;20602;-57
2023/04/12 08:19:49;;;;;;;8.90;6.40;;;20.90;59.10;;;;;;5091276;28;20610;-57
2023/04/12 08:22:19;;;;;;;8.48;6.90;;;20.90;59.10;;;;;;5090884;28;20226;-57
2023/04/12 08:24:50;;;;;;;7.18;6.00;;;20.90;59.00;;;;;;5090307;28;20201;-57
2023/04/12 08:27:20;;;;;;;9.27;6.63;;;20.90;59.00;;;;;;5090840;28;20198;-57
2023/04/12 08:29:51;;;;;;;10.52;6.72;;;20.90;59.00;;;;;;5086857;28;20219;-57
2023/04/12 08:32:24;;;;;;;8.90;6.63;;;20.90;59.00;;;;;;5091032;28;20686;-57
2023/04/12 08:34:55;;;;;;;8.32;6.07;;;20.90;58.90;;;;;;5090577;28;20194;-57
2023/04/12 08:37:25;;;;;;;7.47;5.57;;;20.90;58.90;;;;;;5091399;28;20201;-57
2023/04/12 08:39:56;;;;;;;8.95;6.28;;;20.90;58.90;;;;;;5093051;28;20559;-57
2023/04/12 08:42:27;;;;;;;7.03;6.30;;;20.90;58.80;;;;;;5091141;28;20654;-57
2023/04/12 08:44:57;;;;;;;7.30;6.38;;;20.90;58.90;;;;;;5090745;28;20213;-57
2023/04/12 08:47:30;;;;;;;8.55;5.80;;;20.90;58.90;;;;;;5091325;28;20838;-56
2023/04/12 08:50:02;;;;;;;8.02;6.05;;;20.90;58.80;;;;;;5090916;28;20267;-57
2023/04/12 08:52:35;;;;;;;8.35;6.15;;;20.90;58.80;;;;;;5092908;28;20214;-57
2023/04/12 08:55:06;;;;;;;7.32;5.70;;;20.90;58.80;;;;;;5094606;28;20230;-57
2023/04/12 08:57:38;;;;;;;7.22;5.60;;;20.80;58.80;;;;;;5094793;28;20198;-55
2023/04/12 09:00:12;;;;;;;6.65;5.93;;;20.80;58.70;;;;;;5079265;28;20191;-57
2023/04/12 09:02:45;;;;;;;6.57;5.38;;;20.80;58.70;;;;;;5074848;28;20686;-56
2023/04/12 09:05:16;;;;;;;5.97;5.38;;;20.80;58.70;;;;;;5074596;28;20199;-56
2023/04/12 09:07:47;;;;;;;8.05;5.80;;;20.90;58.70;;;;;;5074002;28;20195;-56
2023/04/12 09:10:33;;;;;;;7.65;5.47;;;20.90;58.70;;;;;;5073863;28;20764;-57
2023/04/12 09:13:04;;;;;;;5.55;4.97;;;20.80;58.70;;;;;;5074179;28;20305;-56
2023/04/12 09:15:36;;;;;;;6.70;5.35;;;20.80;58.60;;;;;;5079831;28;20259;-56
2023/04/12 09:18:10;;;;;;;6.10;5.38;;;20.80;58.60;;;;;;5093763;28;20194;-56
2023/04/12 09:20:41;;;;;;;5.72;5.13;;;20.80;58.60;;;;;;5094019;28;20198;-57
2023/04/12 09:23:23;;;;;;;7.22;5.15;;;20.80;58.60;;;;;;5094411;28;20218;-57
2023/04/12 09:25:54;;;;;;;6.18;4.78;;;20.80;58.60;;;;;;5094303;28;20194;-57
2023/04/12 09:28:26;;;;;;;6.75;5.47;;;20.80;58.60;;;;;;5093809;28;20202;-57
2023/04/12 09:30:57;;;;;;;6.97;5.45;;;20.80;58.50;;;;;;5094005;28;20265;-57
2023/04/12 09:33:36;;;;;;;6.07;5.03;;;20.80;58.60;;;;;;5094230;28;20213;-57
2023/04/12 09:36:08;;;;;;;7.32;4.85;;;20.80;58.50;;;;;;5094422;28;20658;-58
2023/04/12 09:38:40;;;;;;;6.43;4.47;;;20.80;58.60;;;;;;5094398;28;20201;-58
2023/04/12 09:41:21;;;;;;;5.68;4.28;;;20.70;58.60;;;;;;5094293;28;20198;-58
2023/04/12 09:43:52;;;;;;;6.82;4.85;;;20.80;58.60;;;;;;5094183;28;20229;-59
2023/04/12 09:46:23;;;;;;;4.97;4.18;;;20.70;58.50;;;;;;5081640;28;20572;-58
2023/04/12 09:48:57;;;;;;;5.25;4.20;;;20.70;58.60;;;;;;5073533;28;20237;-59
2023/04/12 09:51:30;;;;;;;5.88;4.18;;;20.80;58.70;;;;;;5081509;28;20630;-59
2023/04/12 09:54:02;;;;;;;5.82;4.70;;;20.70;58.70;;;;;;5081786;28;20207;-60
2023/04/12 09:56:34;;;;;;;6.05;4.40;;;20.70;58.70;;;;;;5087430;28;20848;-59
2023/04/12 09:59:06;;;;;;;5.22;4.32;;;20.80;58.70;;;;;;5082419;28;20187;-59
2023/04/12 10:01:39;;;;;;;5.20;3.83;;;20.80;58.70;;;;;;5091996;28;20205;-59
2023/04/12 10:04:12;;;;;;;5.03;3.88;;;20.80;58.60;;;;;;5088484;28;20264;-59
2023/04/12 10:06:43;;;;;;;4.60;3.67;;;20.70;58.60;;;;;;5072031;28;20202;-59
2023/04/12 10:09:16;;;;;;;4.95;3.70;;;20.70;58.60;;;;;;5092043;28;20193;-59
2023/04/12 10:11:48;;;;;;;4.63;3.72;;;20.70;58.60;;;;;;5092773;28;20226;-59
2023/04/12 10:14:20;;;;;;;5.40;3.60;;;20.70;58.60;;;;;;5106645;28;20637;-59
2023/04/12 10:16:54;;;;;;;4.68;3.70;;;20.70;58.60;;;;;;5088018;28;20201;-59
2023/04/12 10:19:28;;;;;;;5.10;3.88;;;20.70;58.60;;;;;;5093140;28;20194;-59
2023/04/12 10:21:59;;;;;;;4.43;3.78;;;20.70;58.60;;;;;;5091809;28;20620;-59
2023/04/12 10:24:31;;;;;;;4.25;3.50;;;20.70;58.60;;;;;;5092261;28;20582;-59
2023/04/12 10:27:03;;;;;;;4.70;3.63;;;20.70;58.60;;;;;;5092666;28;20198;-59
2023/04/12 10:29:36;;;;;;;4.10;3.53;;;20.70;58.50;;;;;;5092775;28;20201;-59
2023/04/12 10:32:21;;;;;;;4.35;3.30;;;20.70;58.60;;;;;;5092097;28;20233;-59
2023/04/12 10:34:59;;;;;;;3.92;3.35;;;20.60;58.50;;;;;;5090818;28;20194;-58
2023/04/12 10:38:03;;;;;;;4.00;3.35;;;20.60;58.50;;;;;;5092792;28;20197;-59
2023/04/12 10:40:35;;;;;;;4.82;3.50;;;20.60;58.50;;;;;;5086439;28;20540;-59
2023/04/12 10:43:27;;;;;;;4.50;3.70;;;20.60;58.40;;;;;;5091772;28;20214;-59
2023/04/12 10:46:03;;;;;;;4.05;3.63;;;20.60;58.40;;;;;;5089265;28;20201;-59
2023/04/12 10:48:35;;;;;;;3.90;3.40;;;20.60;58.40;;;;;;5092032;28;20186;-59
2023/04/12 10:51:22;;;;;;;3.70;3.38;;;20.60;58.40;;;;;;5092005;28;20775;-59
2023/04/12 10:53:53;;;;;;;4.07;3.47;;;20.60;58.50;;;;;;5089278;28;20281;-59
2023/04/12 10:56:40;;;;;;;3.90;2.80;;;20.60;58.40;;;;;;5084760;28;20186;-59
2023/04/12 10:59:12;;;;;;;4.25;3.13;;;20.60;58.50;;;;;;5101331;28;20200;-59
2023/04/12 11:01:43;;;;;;;4.07;3.40;;;20.60;58.40;;;;;;5112566;28;20209;-59
2023/04/12 11:04:21;;;;;;;4.07;3.15;;;20.50;58.40;;;;;;5111554;28;20213;-59
2023/04/12 11:06:58;;;;;;;3.97;3.35;;;20.50;58.40;;;;;;5111924;28;20197;-59
2023/04/12 11:09:30;;;;;;;3.92;3.03;;;20.50;58.40;;;;;;5111221;28;20194;-59
2023/04/12 11:12:13;;;;;;;4.70;3.35;;;20.50;58.40;;;;;;5110964;28;20232;-58
2023/04/12 11:14:48;;;;;;;3.70;3.30;;;20.50;58.40;;;;;;5111906;28;20228;-59
2023/04/12 11:17:26;;;;;;;3.50;2.90;;;20.50;58.40;;;;;;5071523;28;20194;-59
2023/04/12 11:20:02;;;;;;;3.47;2.67;;;20.50;58.40;;;;;;5086448;28;20228;-59
2023/04/12 11:22:35;;;;;;;4.43;3.15;;;20.50;58.40;;;;;;5091360;28;20263;-59
2023/04/12 11:25:05;;;;;;;3.85;3.25;;;20.50;58.40;;;;;;5090641;28;20194;-59
2023/04/12 11:27:36;;;;;;;3.92;3.00;;;20.50;58.40;;;;;;5091985;28;20569;-59
2023/04/12 11:30:08;;;;;;;4.93;3.17;;;20.50;58.40;;;;;;5091176;28;20196;-59
2023/04/12 11:32:40;;;;;;;3.72;3.22;;;20.50;58.40;;;;;;5091682;28;20222;-59
2023/04/12 11:35:11;;;;;;;4.78;3.10;;;20.50;58.40;;;;;;5091136;28;20223;-59
2023/04/12 11:37:45;;;;;;;3.28;2.97;;;20.40;58.30;;;;;;5091413;28;20205;-59
2023/04/12 11:40:15;;;;;;;3.92;2.78;;;20.40;58.90;;;;;;5101771;28;20649;-59
2023/04/12 11:42:46;;;;;;;4.25;3.20;;;20.40;58.30;;;;;;5070680;28;20561;-59
2023/04/12 11:45:21;;;;;;;4.00;3.33;;;20.40;58.30;;;;;;5086442;28;20213;-59
2023/04/12 11:47:53;;;;;;;5.75;3.20;;;20.40;58.30;;;;;;5090644;28;20193;-59
2023/04/12 11:50:32;;;;;;;3.55;3.00;;;20.40;58.30;;;;;;5091096;28;20193;-59
2023/04/12 11:53:19;;;;;;;4.90;3.30;;;20.40;58.30;;;;;;5085881;28;20213;-59
2023/04/12 11:55:51;;;;;;;4.70;3.47;;;20.40;58.30;;;;;;5072797;28;20186;-59
2023/04/12 11:58:25;;;;;;;4.88;3.10;;;20.40;58.80;;;;;;5080887;28;20190;-59
2023/04/12 12:00:58;;;;;;;7.38;3.95;;;20.40;58.30;;;;;;5080645;28;20568;-59
2023/04/12 12:03:29;;;;;;;5.72;3.67;;;20.40;58.30;;;;;;5079633;28;20694;-59
2023/04/12 12:06:00;;;;;;;5.65;4.00;;;20.40;58.20;;;;;;5079067;28;20205;-60
2023/04/12 12:08:32;;;;;;;5.57;3.75;;;20.40;58.20;;;;;;5079664;28;20186;-60
2023/04/12 12:11:03;;;;;;;4.85;3.40;;;20.30;58.20;;;;;;5079368;28;20211;-59
2023/04/12 12:13:48;;;;;;;5.35;3.90;;;20.30;58.20;;;;;;5080385;28;20262;-60
2023/04/12 12:16:20;;;;;;;6.05;3.30;;;20.30;58.20;;;;;;5080498;28;20203;-59
2023/04/12 12:18:52;;;;;;;4.97;3.58;;;20.30;58.10;;;;;;5079305;28;20269;-60
2023/04/12 12:21:23;;;;;;;4.28;3.60;;;20.30;58.10;;;;;;5078464;28;20269;-61
2023/04/12 12:23:55;;;;;;;4.03;3.30;;;20.30;58.10;;;;;;5080062;28;20206;-61
2023/04/12 12:26:27;;;;;;;7.57;4.10;;;20.30;58.20;;;;;;5078647;28;20190;-60
2023/04/12 12:29:00;;;;;;;7.97;3.72;;;20.30;58.20;;;;;;5084159;28;20229;-60
2023/04/12 12:31:32;;;;;;;5.95;3.67;;;20.20;58.10;;;;;;5083050;28;20245;-60
2023/04/12 12:34:03;;;;;;;4.78;3.63;;;20.20;58.10;;;;;;5082675;28;20210;-60
2023/04/12 12:36:34;;;;;;;5.13;3.38;;;20.20;58.10;;;;;;5082860;28;20598;-60
2023/04/12 12:39:14;;;;;;;6.03;3.45;;;20.20;58.10;;;;;;5085097;28;20190;-60
2023/04/12 12:41:44;;;;;;;6.35;3.83;;;20.20;58.10;;;;;;5085159;28;20668;-60
2023/04/12 12:44:15;;;;;;;6.95;3.95;;;20.20;58.10;;;;;;5083751;28;20222;-60
2023/04/12 12:46:46;;;;;;;6.53;4.15;;;20.20;58.00;;;;;;5078962;28;20197;-60
2023/04/12 12:49:16;;;;;;;5.85;3.58;;;20.20;58.00;;;;;;5083289;28;20235;-59
2023/04/12 12:51:47;;;;;;;5.80;3.45;;;20.20;58.00;;;;;;5084858;28;20245;-59
2023/04/12 12:54:20;;;;;;;5.55;3.90;;;20.10;58.00;;;;;;5084287;28;20194;-60
2023/04/12 12:56:50;;;;;;;4.43;3.50;;;20.20;58.10;;;;;;5079828;28;20856;-59
2023/04/12 12:59:21;;;;;;;5.50;4.00;;;20.10;58.00;;;;;;5074655;28;20197;-59
2023/04/12 13:01:51;;;;;;;4.82;3.83;;;20.10;58.00;;;;;;5079732;28;20189;-60
2023/04/12 13:04:22;;;;;;;6.43;3.72;;;20.10;58.00;;;;;;5094760;28;20198;-60
2023/04/12 13:06:53;;;;;;;5.60;3.47;;;20.10;58.00;;;;;;5094626;28;20654;-59
2023/04/12 13:09:26;;;;;;;5.00;3.67;;;20.10;58.00;;;;;;5094953;28;20190;-60
2023/04/12 13:11:57;;;;;;;6.35;3.70;;;20.10;58.00;;;;;;5094389;28;20229;-60